Time;durP1;ratioP1;P1;durP2;ratioP2;P2;SDS_P1;SDS_P2;PMS_P1;PMS_P2;Temp;Humidity;BMP_temperature;BMP_pressure;BME280_temperature;BME280_humidity;BME280_pressure;Samples;Min_cycle;Max_cycle;Signal;HPM_P1;HPM_P2
2022/07/24 00:01:25;;;;;;;13.73;12.30;;;;;;;25.70;57.61;100151.31;4987441;28;20049;-67
2022/07/24 00:03:51;;;;;;;13.55;11.70;;;;;;;25.65;57.34;100136.63;4987416;28;20037;-67
2022/07/24 00:06:16;;;;;;;14.02;12.60;;;;;;;25.67;57.59;100145.47;4987366;28;20111;-67
2022/07/24 00:08:42;;;;;;;13.48;11.68;;;;;;;25.61;57.75;100139.00;4987161;28;20187;-67
2022/07/24 00:11:07;;;;;;;13.32;11.85;;;;;;;25.63;57.75;100139.59;4987431;28;20435;-68
2022/07/24 00:13:33;;;;;;;14.23;11.82;;;;;;;25.63;57.82;100142.34;4987704;28;20038;-68
2022/07/24 00:15:59;;;;;;;12.32;11.10;;;;;;;25.64;58.04;100151.44;4987377;28;20052;-68
2022/07/24 00:18:24;;;;;;;12.55;11.25;;;;;;;25.64;58.25;100162.44;4987264;28;20038;-67
2022/07/24 00:20:50;;;;;;;14.55;11.68;;;;;;;25.57;58.57;100162.50;4987337;28;20022;-68
2022/07/24 00:23:15;;;;;;;14.73;11.00;;;;;;;25.58;58.60;100166.97;4986930;28;20122;-68
2022/07/24 00:25:41;;;;;;;14.80;11.45;;;;;;;25.60;58.77;100167.53;4987375;28;20093;-68
2022/07/24 00:28:06;;;;;;;14.50;11.95;;;;;;;25.65;58.89;100175.06;4987340;28;20061;-67
2022/07/24 00:30:31;;;;;;;13.35;11.40;;;;;;;25.68;58.69;100191.94;4987223;28;20042;-67
2022/07/24 00:32:57;;;;;;;14.07;11.00;;;;;;;25.70;58.95;100217.25;4985599;28;20026;-67
2022/07/24 00:35:23;;;;;;;13.60;11.13;;;;;;;25.72;58.99;100239.00;4987129;28;20476;-67
2022/07/24 00:37:48;;;;;;;12.40;11.13;;;;;;;25.76;59.13;100263.03;4987768;28;20057;-67
2022/07/24 00:40:15;;;;;;;12.23;11.02;;;;;;;25.74;58.86;100278.09;4987004;28;20037;-68
2022/07/24 00:42:42;;;;;;;17.10;11.32;;;;;;;25.95;58.86;100300.38;4986768;28;20052;-67
2022/07/24 00:45:08;;;;;;;15.60;12.10;;;;;;;25.83;60.80;100307.75;4987274;28;20639;-67
2022/07/24 00:47:34;;;;;;;13.80;11.88;;;;;;;25.77;60.82;100296.84;4987612;28;20038;-68
2022/07/24 00:50:00;;;;;;;12.65;11.35;;;;;;;25.86;60.63;100339.44;4987102;28;20498;-67
2022/07/24 00:52:27;;;;;;;13.45;10.90;;;;;;;25.76;61.00;100326.25;4986836;28;20030;-66
2022/07/24 00:54:52;;;;;;;15.50;11.80;;;;;;;25.79;61.49;100333.19;4985696;28;20030;-66
2022/07/24 00:57:18;;;;;;;13.25;11.35;;;;;;;25.79;62.02;100324.97;4987488;28;20044;-67
2022/07/24 00:59:43;;;;;;;16.33;11.40;;;;;;;25.81;62.15;100342.88;4990665;28;20034;-67
2022/07/24 01:02:09;;;;;;;17.40;12.02;;;;;;;25.85;61.96;100351.47;4990668;28;20654;-68
2022/07/24 01:04:34;;;;;;;12.95;11.35;;;;;;;25.77;62.09;100346.31;4991258;28;20053;-68
2022/07/24 01:07:00;;;;;;;13.77;10.82;;;;;;;25.84;62.14;100364.41;4990681;28;20022;-68
2022/07/24 01:09:25;;;;;;;17.83;11.65;;;;;;;25.88;62.06;100367.50;4990501;28;20045;-67
2022/07/24 01:11:52;;;;;;;12.60;11.25;;;;;;;25.87;62.43;100372.19;4990605;28;20029;-68
2022/07/24 01:14:17;;;;;;;11.73;10.50;;;;;;;25.92;62.67;100371.50;4990702;28;20030;-69
2022/07/24 01:16:43;;;;;;;15.13;9.93;;;;;;;25.90;63.62;100368.97;4990421;28;20030;-68
2022/07/24 01:19:09;;;;;;;13.63;9.77;;;;;;;25.93;64.86;100365.75;4990724;28;20053;-67
2022/07/24 01:21:35;;;;;;;13.63;10.00;;;;;;;25.85;65.77;100349.59;4990850;28;20042;-66
2022/07/24 01:24:01;;;;;;;15.35;10.90;;;;;;;25.89;67.21;100352.72;4988941;28;20040;-68
2022/07/24 01:26:26;;;;;;;10.90;9.27;;;;;;;25.87;67.36;100357.59;4990181;28;20038;-68
2022/07/24 01:28:52;;;;;;;12.43;9.23;;;;;;;25.76;68.99;100331.75;4990051;28;20030;-66
2022/07/24 01:31:18;;;;;;;15.05;9.35;;;;;;;25.85;71.39;100343.25;4990424;28;20034;-69
2022/07/24 01:33:44;;;;;;;19.42;10.20;;;;;;;25.84;73.52;100341.56;4990054;28;20034;-69
2022/07/24 01:36:09;;;;;;;12.43;10.52;;;;;;;25.83;74.40;100335.22;4990159;28;20034;-70
2022/07/24 01:38:35;;;;;;;18.50;10.65;;;;;;;25.82;75.51;100332.72;4988558;28;20049;-70
2022/07/24 01:41:00;;;;;;;16.08;10.57;;;;;;;25.72;76.82;100313.19;4989935;28;20037;-70
2022/07/24 01:43:26;;;;;;;17.13;11.55;;;;;;;25.63;83.17;100292.63;4988256;28;20043;-70
2022/07/24 01:45:51;;;;;;;13.02;11.57;;;;;;;25.63;82.22;100284.38;4989830;28;20030;-70
2022/07/24 01:48:17;;;;;;;17.10;11.93;;;;;;;25.51;85.77;100269.75;4989822;28;20026;-69
2022/07/24 01:50:42;;;;;;;22.85;11.88;;;;;;;25.55;86.94;100273.72;4989696;28;20037;-69
2022/07/24 01:53:08;;;;;;;16.20;11.50;;;;;;;25.49;86.47;100264.50;4990100;28;20491;-67
2022/07/24 01:55:33;;;;;;;15.82;11.07;;;;;;;25.45;87.37;100252.31;4990165;28;20472;-69
2022/07/24 01:57:59;;;;;;;18.00;11.85;;;;;;;25.38;88.65;100247.97;4989646;28;20030;-69
2022/07/24 02:00:24;;;;;;;12.85;10.32;;;;;;;25.31;84.76;100252.72;4989758;28;20030;-69
2022/07/24 02:02:50;;;;;;;12.57;10.52;;;;;;;25.19;85.08;100257.28;4989498;28;20029;-69
2022/07/24 02:05:16;;;;;;;17.10;10.90;;;;;;;25.09;85.59;100262.47;4989441;28;20080;-69
2022/07/24 02:07:43;;;;;;;18.15;12.10;;;;;;;25.08;87.09;100278.09;4989149;28;20084;-69
2022/07/24 02:10:10;;;;;;;12.02;10.85;;;;;;;25.04;88.21;100298.84;4988997;28;20034;-71
2022/07/24 02:12:35;;;;;;;14.32;11.57;;;;;;;24.99;88.24;100304.16;4989483;28;20038;-69
2022/07/24 02:15:01;;;;;;;13.00;10.65;;;;;;;24.86;87.18;100290.56;4989459;28;20053;-69
2022/07/24 02:17:27;;;;;;;14.90;11.85;;;;;;;24.87;85.83;100308.75;4987794;28;20049;-69
2022/07/24 02:19:52;;;;;;;13.55;12.10;;;;;;;24.77;86.36;100302.94;4989120;28;20022;-69
2022/07/24 02:22:17;;;;;;;15.38;12.00;;;;;;;24.69;86.54;100310.63;4989057;28;20034;-69
2022/07/24 02:24:43;;;;;;;14.23;11.32;;;;;;;24.55;87.68;100290.66;4989468;28;20046;-68
2022/07/24 02:27:08;;;;;;;15.73;11.30;;;;;;;24.59;88.84;100305.59;4989231;28;20395;-69
2022/07/24 02:29:34;;;;;;;17.00;11.48;;;;;;;24.57;88.84;100290.44;4989100;28;20038;-68
2022/07/24 02:32:00;;;;;;;15.65;12.07;;;;;;;24.45;88.68;100298.56;4988772;28;20022;-67
2022/07/24 02:34:25;;;;;;;14.60;11.52;;;;;;;24.33;89.74;100284.75;4988433;28;20034;-69
2022/07/24 02:36:52;;;;;;;19.35;12.57;;;;;;;24.33;90.83;100272.94;4988494;28;20061;-68
2022/07/24 02:39:17;;;;;;;14.10;11.77;;;;;;;24.30;91.02;100268.75;4988610;28;20057;-68
2022/07/24 02:41:43;;;;;;;12.07;10.88;;;;;;;24.30;89.59;100276.13;4988527;28;20429;-68
2022/07/24 02:44:08;;;;;;;12.75;11.40;;;;;;;24.29;88.72;100283.53;4988233;28;20050;-68
2022/07/24 02:46:34;;;;;;;14.40;12.02;;;;;;;24.20;89.47;100270.31;4988392;28;20555;-69
2022/07/24 02:48:59;;;;;;;13.80;12.05;;;;;;;24.19;89.58;100276.88;4988204;28;20484;-69
2022/07/24 02:51:25;;;;;;;13.35;12.00;;;;;;;24.14;90.47;100262.97;4986885;28;20069;-69
2022/07/24 02:53:50;;;;;;;13.43;11.50;;;;;;;24.10;90.60;100240.69;4988478;28;20042;-69
2022/07/24 02:56:16;;;;;;;12.73;11.45;;;;;;;24.14;90.32;100244.63;4987749;28;20045;-69
2022/07/24 02:58:41;;;;;;;12.43;11.18;;;;;;;24.16;89.24;100242.53;4988345;28;20027;-69
2022/07/24 03:01:07;;;;;;;13.13;11.85;;;;;;;24.18;88.84;100232.16;4988596;28;20483;-68
2022/07/24 03:03:32;;;;;;;15.13;11.63;;;;;;;24.16;88.62;100228.81;4986284;28;20030;-68
2022/07/24 03:05:57;;;;;;;12.63;11.32;;;;;;;24.06;88.30;100238.59;4986697;28;20387;-68
2022/07/24 03:08:23;;;;;;;15.38;11.73;;;;;;;24.06;87.15;100239.44;4987859;28;20034;-68
2022/07/24 03:10:48;;;;;;;15.50;12.25;;;;;;;23.96;87.13;100241.81;4987828;28;20026;-69
2022/07/24 03:13:15;;;;;;;12.90;11.43;;;;;;;23.98;87.85;100258.91;4987351;28;20088;-68
2022/07/24 03:15:40;;;;;;;13.10;11.80;;;;;;;23.91;87.76;100252.59;4988110;28;20488;-68
2022/07/24 03:18:06;;;;;;;11.70;9.75;;;;;;;23.91;88.12;100249.88;4988409;28;20038;-68
2022/07/24 03:20:32;;;;;;;17.30;11.88;;;;;;;23.88;88.54;100247.56;4987754;28;20054;-67
2022/07/24 03:23:00;;;;;;;12.32;11.13;;;;;;;23.87;88.66;100243.16;4986606;28;20034;-67
2022/07/24 03:25:26;;;;;;;13.25;11.80;;;;;;;23.89;88.27;100229.25;4988196;28;20022;-67
2022/07/24 03:27:51;;;;;;;12.63;11.18;;;;;;;23.83;87.14;100236.41;4988264;28;20061;-68
2022/07/24 03:30:18;;;;;;;13.20;11.60;;;;;;;23.87;87.42;100228.59;4986469;28;20082;-68
2022/07/24 03:32:43;;;;;;;15.90;11.68;;;;;;;23.89;87.40;100238.28;4988234;28;20042;-68
2022/07/24 03:35:09;;;;;;;14.70;12.30;;;;;;;23.84;87.88;100232.63;4988208;28;20030;-68
2022/07/24 03:37:35;;;;;;;12.60;11.35;;;;;;;23.84;87.79;100232.63;4988132;28;20053;-67
2022/07/24 03:40:01;;;;;;;14.10;12.40;;;;;;;23.82;88.07;100193.66;4987962;28;20064;-67
2022/07/24 03:42:26;;;;;;;13.32;11.98;;;;;;;23.81;88.67;100115.28;4987887;28;20109;-67
2022/07/24 03:44:52;;;;;;;13.65;11.98;;;;;;;23.82;87.74;100092.28;4986350;28;20045;-69
2022/07/24 03:47:17;;;;;;;14.88;11.95;;;;;;;23.84;88.13;100092.91;4988112;28;20025;-69
2022/07/24 03:49:43;;;;;;;14.57;11.90;;;;;;;23.94;87.95;100133.53;4988049;28;20042;-69
2022/07/24 03:52:09;;;;;;;14.15;12.60;;;;;;;23.92;88.76;100144.69;4987816;28;20030;-69
2022/07/24 03:54:34;;;;;;;15.02;12.05;;;;;;;23.91;89.11;100151.22;4987896;28;20400;-70
2022/07/24 03:57:00;;;;;;;13.95;11.95;;;;;;;23.92;90.25;100154.78;4987800;28;20040;-70
2022/07/24 03:59:25;;;;;;;12.70;11.40;;;;;;;23.87;90.50;100171.06;4987722;28;20101;-70
2022/07/24 04:01:51;;;;;;;14.73;12.20;;;;;;;23.92;91.61;100185.78;4987566;28;20077;-70
2022/07/24 04:04:16;;;;;;;14.35;12.77;;;;;;;23.91;92.33;100192.31;4988039;28;20089;-70
2022/07/24 04:06:42;;;;;;;13.25;11.85;;;;;;;23.95;91.22;100214.66;4986642;28;20542;-70
2022/07/24 04:09:08;;;;;;;15.77;12.40;;;;;;;23.93;91.71;100214.03;4986510;28;20038;-71
2022/07/24 04:11:33;;;;;;;15.90;12.38;;;;;;;23.93;90.67;100220.31;4984490;28;20105;-69
2022/07/24 04:13:59;;;;;;;14.32;12.88;;;;;;;23.89;90.28;100215.53;4987062;28;20401;-68
2022/07/24 04:16:24;;;;;;;13.77;12.00;;;;;;;23.93;90.14;100227.72;4986991;28;20030;-69
2022/07/24 04:18:50;;;;;;;15.52;11.75;;;;;;;23.88;89.62;100227.53;4986546;28;20528;-69
2022/07/24 04:21:16;;;;;;;13.68;11.80;;;;;;;23.93;89.62;100223.06;4986670;28;20026;-68
2022/07/24 04:23:42;;;;;;;13.10;11.80;;;;;;;23.95;89.53;100236.56;4984797;28;20108;-70
2022/07/24 04:26:07;;;;;;;13.27;11.93;;;;;;;23.95;89.56;100244.78;4985125;28;20030;-69
2022/07/24 04:28:33;;;;;;;13.88;11.77;;;;;;;23.85;89.33;100233.47;4986070;28;20431;-69
2022/07/24 04:30:59;;;;;;;12.70;11.50;;;;;;;23.93;88.85;100257.84;4986357;28;20077;-68
2022/07/24 04:33:25;;;;;;;14.05;11.82;;;;;;;24.00;89.33;100267.75;4990735;28;20022;-68
2022/07/24 04:35:50;;;;;;;12.15;10.95;;;;;;;24.09;89.16;100279.28;4991393;28;20026;-69
2022/07/24 04:38:15;;;;;;;13.70;12.30;;;;;;;24.13;88.82;100275.88;4990879;28;20122;-68
2022/07/24 04:40:42;;;;;;;12.68;11.45;;;;;;;24.28;88.62;100289.25;4990417;28;20073;-70
2022/07/24 04:43:08;;;;;;;12.98;11.70;;;;;;;24.34;87.66;100274.59;4990275;28;20035;-69
2022/07/24 04:45:33;;;;;;;15.10;11.93;;;;;;;24.40;87.49;100260.84;4990368;28;20077;-69
2022/07/24 04:47:59;;;;;;;13.32;10.45;;;;;;;24.47;86.92;100269.00;4988920;28;20061;-69
2022/07/24 04:50:24;;;;;;;12.90;10.98;;;;;;;24.63;83.91;100284.88;4989781;28;20030;-69
2022/07/24 04:52:50;;;;;;;11.80;10.48;;;;;;;24.63;83.71;100290.38;4989641;28;20025;-69
2022/07/24 04:55:15;;;;;;;15.75;11.10;;;;;;;24.63;83.94;100289.53;4990459;28;20121;-68
2022/07/24 04:57:41;;;;;;;12.27;10.98;;;;;;;24.62;84.58;100304.31;4989869;28;20065;-68
2022/07/24 05:00:11;;;;;;;14.77;11.48;;;;;;;24.62;83.70;100299.66;4989458;28;20030;-68
2022/07/24 05:02:37;;;;;;;11.32;10.10;;;;;;;24.67;83.13;100301.78;4989844;28;20472;-68
2022/07/24 05:05:03;;;;;;;12.10;10.80;;;;;;;24.73;81.37;100303.63;4989615;28;20045;-69
2022/07/24 05:07:28;;;;;;;13.57;10.63;;;;;;;24.82;79.88;100313.25;4989655;28;20022;-68
2022/07/24 05:09:54;;;;;;;12.35;10.82;;;;;;;24.73;80.97;100306.34;4988346;28;20121;-67
2022/07/24 05:12:19;;;;;;;10.98;9.90;;;;;;;24.76;80.58;100309.47;4989815;28;20495;-69
2022/07/24 05:14:45;;;;;;;11.52;10.43;;;;;;;24.75;80.43;100309.69;4989834;28;20041;-69
2022/07/24 05:17:10;;;;;;;12.13;9.98;;;;;;;24.71;80.13;100308.47;4989460;28;20030;-68
2022/07/24 05:19:36;;;;;;;12.07;10.95;;;;;;;24.64;80.77;100314.03;4989498;28;20031;-68
2022/07/24 05:22:01;;;;;;;13.15;10.20;;;;;;;24.66;81.53;100322.06;4989585;28;20045;-68
2022/07/24 05:24:27;;;;;;;10.07;9.07;;;;;;;24.58;80.33;100303.09;4989708;28;20472;-68
2022/07/24 05:26:52;;;;;;;12.25;9.88;;;;;;;24.64;80.31;100318.69;4990893;28;20038;-67
2022/07/24 05:29:18;;;;;;;15.98;10.40;;;;;;;24.80;79.97;100345.53;4990748;28;20495;-67
2022/07/24 05:31:44;;;;;;;12.25;10.63;;;;;;;24.68;80.25;100325.38;4988973;28;20057;-67
2022/07/24 05:34:09;;;;;;;11.38;10.18;;;;;;;24.83;79.05;100350.59;4991699;28;20651;-68
2022/07/24 05:36:36;;;;;;;12.32;10.55;;;;;;;24.83;79.08;100356.91;4990357;28;20058;-68
2022/07/24 05:39:01;;;;;;;11.50;9.95;;;;;;;24.79;79.06;100344.69;4989373;28;20030;-67
2022/07/24 05:41:27;;;;;;;10.70;9.60;;;;;;;24.81;78.55;100355.44;4989894;28;20069;-67
2022/07/24 05:43:53;;;;;;;10.60;9.60;;;;;;;24.90;77.20;100356.84;4989625;28;20083;-67
2022/07/24 05:46:19;;;;;;;11.02;9.95;;;;;;;24.86;77.57;100359.19;4991509;28;20037;-68
2022/07/24 05:48:44;;;;;;;11.90;9.52;;;;;;;24.87;78.08;100368.25;5007325;28;20042;-67
2022/07/24 05:51:10;;;;;;;12.00;10.05;;;;;;;24.93;77.05;100361.88;5007578;28;20010;-67
2022/07/24 05:53:35;;;;;;;14.52;10.10;;;;;;;24.91;77.50;100370.34;5009238;28;20090;-68
2022/07/24 05:56:00;;;;;;;13.50;9.95;;;;;;;24.98;77.01;100373.03;4995104;28;20032;-67
2022/07/24 05:58:26;;;;;;;12.32;9.20;;;;;;;24.86;77.71;100355.63;4989136;28;20030;-69
2022/07/24 06:00:51;;;;;;;12.80;10.23;;;;;;;25.03;77.78;100373.16;4989202;28;20484;-68
2022/07/24 06:03:17;;;;;;;11.23;10.05;;;;;;;25.00;78.21;100368.13;4989479;28;20026;-67
2022/07/24 06:05:42;;;;;;;10.40;9.32;;;;;;;25.02;78.66;100366.00;4989178;28;20038;-68
2022/07/24 06:08:08;;;;;;;10.23;9.23;;;;;;;25.06;78.56;100367.22;4989269;28;20037;-68
2022/07/24 06:10:34;;;;;;;9.52;8.68;;;;;;;25.12;78.82;100363.59;4988941;28;20041;-67
2022/07/24 06:13:00;;;;;;;13.43;10.05;;;;;;;25.30;76.94;100364.41;4988997;28;20109;-68
2022/07/24 06:15:25;;;;;;;10.27;9.27;;;;;;;25.37;75.88;100369.88;4988488;28;20026;-68
2022/07/24 06:17:51;;;;;;;10.65;9.35;;;;;;;25.39;75.53;100375.97;4988919;28;20027;-68
2022/07/24 06:20:16;;;;;;;15.65;9.88;;;;;;;25.43;75.15;100369.78;4988761;28;20815;-68
2022/07/24 06:22:43;;;;;;;11.50;9.90;;;;;;;25.48;74.69;100371.84;4988385;28;20081;-69
2022/07/24 06:25:09;;;;;;;10.77;8.90;;;;;;;25.52;74.66;100373.06;4988443;28;20030;-68
2022/07/24 06:27:47;;;;;;;11.13;9.93;;;;;;;25.65;74.10;100384.75;4988173;28;20037;-68
2022/07/24 06:30:17;;;;;;;18.83;9.38;;;;;;;25.80;73.50;100376.09;4986537;28;20664;-68
2022/07/24 06:32:43;;;;;;;11.45;9.60;;;;;;;25.86;73.01;100386.16;4988306;28;20103;-67
2022/07/24 06:35:09;;;;;;;13.15;9.43;;;;;;;26.04;71.80;100369.66;4988379;28;20480;-68
2022/07/24 06:37:35;;;;;;;13.02;9.32;;;;;;;26.15;70.87;100355.94;4988366;28;20034;-68
2022/07/24 06:40:01;;;;;;;13.70;10.55;;;;;;;26.44;68.41;100387.25;4986934;28;20030;-68
2022/07/24 06:42:26;;;;;;;12.63;10.38;;;;;;;26.47;67.55;100379.34;4987801;28;20046;-69
2022/07/24 06:44:52;;;;;;;10.85;9.75;;;;;;;26.46;67.39;100368.56;4986501;28;20030;-68
2022/07/24 06:47:17;;;;;;;10.15;9.25;;;;;;;26.57;67.56;100387.03;4988344;28;20134;-68
2022/07/24 06:49:43;;;;;;;11.75;9.90;;;;;;;26.62;66.54;100373.41;4985204;28;20042;-68
2022/07/24 06:52:08;;;;;;;10.35;9.30;;;;;;;26.61;66.48;100366.25;4987605;28;20022;-67
2022/07/24 06:54:34;;;;;;;10.23;9.15;;;;;;;26.90;65.64;100380.97;4987693;28;20172;-67
2022/07/24 06:56:59;;;;;;;11.38;8.93;;;;;;;27.06;64.27;100383.88;4988426;28;20034;-67
2022/07/24 06:59:25;;;;;;;10.35;9.43;;;;;;;27.10;64.62;100378.69;4988552;28;20033;-67
2022/07/24 07:01:51;;;;;;;12.27;9.70;;;;;;;27.32;63.18;100383.41;4988337;28;20580;-67
2022/07/24 07:04:17;;;;;;;11.70;8.77;;;;;;;27.33;62.54;100379.56;4988241;28;20034;-67
2022/07/24 07:06:42;;;;;;;10.35;9.23;;;;;;;27.42;62.38;100386.38;4988202;28;20515;-68
2022/07/24 07:09:08;;;;;;;13.48;10.05;;;;;;;27.61;62.02;100387.91;4986609;28;20480;-67
2022/07/24 07:11:33;;;;;;;10.57;8.70;;;;;;;27.58;62.35;100382.03;4988156;28;20034;-67
2022/07/24 07:13:59;;;;;;;11.25;8.55;;;;;;;27.77;61.44;100391.78;4987450;28;20068;-69
2022/07/24 07:16:24;;;;;;;10.38;9.10;;;;;;;27.95;60.47;100395.25;4987977;28;20034;-68
2022/07/24 07:18:50;;;;;;;9.85;8.85;;;;;;;28.04;61.01;100391.00;4986743;28;20048;-68
2022/07/24 07:21:15;;;;;;;10.52;9.15;;;;;;;28.23;60.46;100395.25;4987954;28;20030;-69
2022/07/24 07:23:40;;;;;;;14.02;9.93;;;;;;;28.36;60.39;100396.84;4987479;28;20037;-68
2022/07/24 07:26:06;;;;;;;10.27;8.57;;;;;;;28.58;59.52;100400.59;4985489;28;20049;-68
2022/07/24 07:28:32;;;;;;;11.70;9.32;;;;;;;28.70;58.97;100401.38;4984472;28;20033;-68
2022/07/24 07:30:57;;;;;;;12.20;9.27;;;;;;;28.89;58.21;100407.47;4987050;28;20101;-68
2022/07/24 07:33:23;;;;;;;9.60;8.65;;;;;;;29.07;57.07;100409.97;4986830;28;20064;-67
2022/07/24 07:35:49;;;;;;;12.60;8.95;;;;;;;29.11;56.84;100400.13;4987008;28;20088;-68
2022/07/24 07:38:15;;;;;;;9.98;8.95;;;;;;;29.31;56.85;100405.94;4985479;28;20026;-68
2022/07/24 07:40:40;;;;;;;10.80;9.45;;;;;;;29.59;55.32;100408.53;4987516;28;20026;-68
2022/07/24 07:43:06;;;;;;;12.65;9.90;;;;;;;29.59;54.78;100403.84;4986942;28;20054;-68
2022/07/24 07:45:31;;;;;;;11.35;9.43;;;;;;;29.66;54.61;100395.41;4985803;28;20050;-68
2022/07/24 07:47:57;;;;;;;10.70;9.65;;;;;;;29.83;53.40;100393.41;4987081;28;20455;-67
2022/07/24 07:50:22;;;;;;;9.82;8.82;;;;;;;29.76;53.80;100381.72;4987413;28;20393;-67
2022/07/24 07:52:48;;;;;;;11.63;8.73;;;;;;;29.91;53.63;100398.47;4987171;28;20031;-68
2022/07/24 07:55:13;;;;;;;10.15;9.15;;;;;;;30.00;54.01;100403.31;4987593;28;20049;-68
2022/07/24 07:57:41;;;;;;;10.25;9.07;;;;;;;30.05;53.96;100388.69;4986976;28;20030;-68
2022/07/24 08:00:08;;;;;;;11.23;9.52;;;;;;;30.30;52.60;100388.97;4987453;28;20384;-68
2022/07/24 08:02:33;;;;;;;11.55;10.35;;;;;;;30.40;52.73;100395.44;4987424;28;20484;-68
2022/07/24 08:04:58;;;;;;;10.93;9.48;;;;;;;30.46;52.08;100394.41;4985971;28;20026;-68
2022/07/24 08:07:24;;;;;;;12.55;9.07;;;;;;;30.56;51.14;100400.03;4989848;28;20034;-68
2022/07/24 08:09:49;;;;;;;11.98;9.70;;;;;;;30.51;51.21;100399.16;4991852;28;20084;-68
2022/07/24 08:12:15;;;;;;;9.77;8.77;;;;;;;30.51;50.69;100394.47;4991209;28;20045;-67
2022/07/24 08:14:40;;;;;;;11.52;8.77;;;;;;;30.48;50.64;100406.06;4991505;28;20114;-68
2022/07/24 08:17:06;;;;;;;10.98;9.48;;;;;;;30.64;49.65;100401.50;4991529;28;20080;-68
2022/07/24 08:19:31;;;;;;;10.93;9.38;;;;;;;30.67;49.58;100394.59;4990931;28;20046;-66
2022/07/24 08:21:57;;;;;;;9.93;8.80;;;;;;;30.92;47.98;100395.69;4991093;28;20030;-69
2022/07/24 08:24:22;;;;;;;11.20;8.38;;;;;;;30.97;48.17;100395.69;4990278;28;20038;-67
2022/07/24 08:26:48;;;;;;;9.63;8.68;;;;;;;31.02;48.10;100401.31;4991375;28;20041;-68
2022/07/24 08:29:14;;;;;;;8.93;8.10;;;;;;;31.10;47.04;100394.41;4991772;28;20950;-67
2022/07/24 08:31:39;;;;;;;9.80;8.80;;;;;;;31.36;45.38;100399.03;4991350;28;20425;-66
2022/07/24 08:34:05;;;;;;;8.65;7.85;;;;;;;31.37;44.91;100395.19;4991409;28;20419;-67
2022/07/24 08:36:31;;;;;;;9.80;8.50;;;;;;;31.42;44.95;100400.75;4991516;28;20808;-67
2022/07/24 08:38:57;;;;;;;9.80;8.35;;;;;;;31.52;44.54;100392.47;4991286;28;20030;-67
2022/07/24 08:41:22;;;;;;;8.80;7.90;;;;;;;31.64;43.96;100399.50;4991047;28;20022;-68
2022/07/24 08:43:49;;;;;;;8.10;7.30;;;;;;;31.72;43.63;100393.41;4990893;28;20061;-67
2022/07/24 08:46:16;;;;;;;10.07;8.25;;;;;;;31.81;43.03;100389.03;4991116;28;20070;-68
2022/07/24 08:48:45;;;;;;;10.95;8.45;;;;;;;32.01;42.25;100402.13;4991009;28;20034;-68
2022/07/24 08:51:17;;;;;;;10.48;8.45;;;;;;;32.30;41.17;100400.56;4990876;28;20061;-69
2022/07/24 08:53:43;;;;;;;8.93;8.02;;;;;;;32.27;40.96;100401.94;4990698;28;20029;-68
2022/07/24 08:56:09;;;;;;;10.10;7.90;;;;;;;32.34;39.87;100391.44;4990585;28;20034;-68
2022/07/24 08:58:40;;;;;;;9.75;8.02;;;;;;;32.31;40.17;100396.69;4987395;28;20045;-68
2022/07/24 09:01:07;;;;;;;9.23;7.65;;;;;;;32.18;40.34;100381.38;4989521;28;20026;-67
2022/07/24 09:03:42;;;;;;;11.05;8.10;;;;;;;32.27;39.92;100399.16;4989137;28;20049;-67
2022/07/24 09:06:10;;;;;;;9.90;7.97;;;;;;;32.29;39.62;100399.75;4988255;28;20038;-68
2022/07/24 09:08:36;;;;;;;9.40;7.93;;;;;;;32.28;39.20;100400.81;4988905;28;20054;-69
2022/07/24 09:11:03;;;;;;;10.02;7.65;;;;;;;32.32;39.54;100395.56;4989378;28;20050;-69
2022/07/24 09:14:29;;;;;;;8.35;7.55;;;;;;;32.29;39.52;100388.63;4988624;28;20046;-69
2022/07/24 09:16:28;;;;;;;9.80;7.00;;;;;;;32.44;38.91;100398.97;4989714;28;20034;-68
2022/07/24 09:19:08;;;;;;;9.20;8.25;;;;;;;32.39;38.28;100394.25;4988455;28;20078;-68
2022/07/24 09:21:36;;;;;;;8.27;7.57;;;;;;;32.40;38.51;100400.63;4989417;28;20388;-68
2022/07/24 09:24:15;;;;;;;8.55;7.75;;;;;;;32.39;38.54;100405.34;4988825;28;20393;-68
2022/07/24 09:26:50;;;;;;;9.15;7.18;;;;;;;32.35;38.49;100395.91;4989012;28;20037;-68
2022/07/24 09:29:16;;;;;;;9.38;8.20;;;;;;;32.26;38.17;100372.53;4988192;28;20706;-67
2022/07/24 09:31:54;;;;;;;11.93;8.50;;;;;;;32.35;38.40;100389.50;4988652;28;20018;-68
2022/07/24 09:34:20;;;;;;;11.57;6.78;;;;;;;32.49;37.18;100393.41;4987332;28;20030;-68
2022/07/24 09:37:00;;;;;;;9.48;7.63;;;;;;;32.57;36.26;100396.47;4988672;28;20709;-68
2022/07/24 09:39:29;;;;;;;7.90;7.10;;;;;;;32.48;36.89;100395.38;4988518;28;20049;-69
2022/07/24 09:41:56;;;;;;;9.35;6.78;;;;;;;32.52;35.87;100393.69;4987465;28;20030;-69
2022/07/24 09:44:23;;;;;;;9.35;7.45;;;;;;;32.42;35.77;100402.03;4988413;28;20050;-68
2022/07/24 09:46:58;;;;;;;8.48;6.63;;;;;;;32.43;35.54;100392.56;4988590;28;20058;-67
2022/07/24 09:49:24;;;;;;;8.27;6.78;;;;;;;32.49;35.84;100402.59;4989172;28;20042;-67
2022/07/24 09:52:10;;;;;;;7.22;6.30;;;;;;;32.54;34.88;100401.75;4988149;28;20057;-69
2022/07/24 09:54:38;;;;;;;9.07;6.57;;;;;;;32.60;34.08;100395.91;4987306;28;20041;-68
2022/07/24 09:57:24;;;;;;;7.00;6.40;;;;;;;32.63;34.61;100396.47;4988033;28;20464;-69
2022/07/24 09:59:59;;;;;;;6.95;6.20;;;;;;;32.71;34.93;100404.25;4988503;28;20116;-69
2022/07/24 10:02:27;;;;;;;8.00;6.55;;;;;;;32.74;34.53;100409.25;4987724;28;20816;-69
2022/07/24 10:04:53;;;;;;;7.25;6.53;;;;;;;32.71;34.19;100399.53;4988809;28;20084;-69
2022/07/24 10:07:22;;;;;;;7.60;6.90;;;;;;;32.71;34.69;100393.13;4988930;28;20506;-69
2022/07/24 10:09:50;;;;;;;10.50;7.18;;;;;;;32.75;35.00;100403.41;4988630;28;20812;-68
2022/07/24 10:12:18;;;;;;;7.13;6.22;;;;;;;32.83;34.21;100389.00;4988072;28;20484;-69
2022/07/24 10:14:45;;;;;;;8.10;6.85;;;;;;;32.82;34.31;100392.03;4988069;28;20096;-68
2022/07/24 10:17:12;;;;;;;7.40;6.70;;;;;;;32.82;33.89;100398.41;4988153;28;20443;-69
2022/07/24 10:19:48;;;;;;;9.00;6.95;;;;;;;32.83;34.08;100393.69;4988318;28;20034;-69
2022/07/24 10:22:18;;;;;;;9.70;6.50;;;;;;;32.83;33.50;100399.25;4986732;28;20053;-68
2022/07/24 10:25:16;;;;;;;10.00;6.90;;;;;;;32.89;32.87;100393.47;4988500;28;20030;-69
2022/07/24 10:27:47;;;;;;;7.47;6.60;;;;;;;33.00;32.21;100400.69;4986701;28;20404;-69
2022/07/24 10:30:12;;;;;;;10.68;6.78;;;;;;;32.98;32.17;100390.97;4987309;28;20121;-68
2022/07/24 10:32:39;;;;;;;7.70;6.20;;;;;;;32.93;31.73;100397.34;4987688;28;20488;-69
2022/07/24 10:35:16;;;;;;;7.10;6.43;;;;;;;32.92;33.15;100403.19;4988268;28;20084;-69
2022/07/24 10:37:55;;;;;;;6.97;6.35;;;;;;;32.92;32.51;100389.28;4987744;28;20043;-70
2022/07/24 10:40:26;;;;;;;6.65;6.05;;;;;;;33.00;32.69;100408.16;4987949;28;20121;-69
2022/07/24 10:43:09;;;;;;;7.47;6.78;;;;;;;33.08;32.43;100402.06;4986612;28;20366;-69
2022/07/24 10:45:46;;;;;;;8.80;6.82;;;;;;;33.16;31.46;100399.53;4988312;28;20058;-68
2022/07/24 10:48:20;;;;;;;7.80;7.03;;;;;;;33.12;32.54;100405.94;4987904;28;20189;-68
2022/07/24 10:50:58;;;;;;;8.60;6.95;;;;;;;33.25;31.99;100410.94;4987509;28;20041;-68
2022/07/24 10:53:37;;;;;;;7.97;6.00;;;;;;;33.23;31.97;100402.03;4987697;28;20060;-69
2022/07/24 10:56:20;;;;;;;7.63;6.57;;;;;;;33.19;32.04;100398.97;4987496;28;20129;-68
2022/07/24 10:59:06;;;;;;;7.32;6.13;;;;;;;33.26;32.32;100395.91;4986842;28;20042;-68
2022/07/24 11:01:42;;;;;;;10.50;6.78;;;;;;;33.34;32.97;100396.19;4987787;28;20038;-69
2022/07/24 11:04:23;;;;;;;6.93;6.32;;;;;;;33.48;32.48;100404.78;4986900;28;20050;-68
2022/07/24 11:06:51;;;;;;;7.75;6.85;;;;;;;33.45;32.54;100399.78;4987007;28;20428;-68
2022/07/24 11:09:18;;;;;;;7.18;6.53;;;;;;;33.40;32.70;100386.72;4987448;28;20046;-68
2022/07/24 11:11:53;;;;;;;8.05;6.40;;;;;;;33.58;32.11;100393.63;4986688;28;20057;-67
2022/07/24 11:14:38;;;;;;;8.15;7.35;;;;;;;33.54;33.39;100396.16;4986798;28;20034;-67